Time;durP1;ratioP1;P1;durP2;ratioP2;P2;SDS_P1;SDS_P2;PMS_P1;PMS_P2;Temp;Humidity;BMP_temperature;BMP_pressure;BME280_temperature;BME280_humidity;BME280_pressure;Samples;Min_cycle;Max_cycle;Signal;HPM_P1;HPM_P2
2023/07/20 00:01:59;;;;;;;1999.90;999.90;;;16.00;99.90;;;;;;4806624;29;20528;-75
2023/07/20 00:04:25;;;;;;;1999.90;999.90;;;15.90;99.90;;;;;;4806774;29;20062;-75
2023/07/20 00:06:51;;;;;;;1999.90;999.90;;;15.90;99.90;;;;;;4806747;29;20063;-76
2023/07/20 00:09:16;;;;;;;1999.90;999.90;;;15.90;99.90;;;;;;4806562;29;20050;-76
2023/07/20 00:11:50;;;;;;;1999.90;999.90;;;15.90;99.90;;;;;;4807213;29;20165;-75
2023/07/20 00:14:17;;;;;;;1999.90;999.90;;;15.90;99.90;;;;;;4807353;29;20123;-76
2023/07/20 00:16:42;;;;;;;1999.90;999.90;;;15.90;99.90;;;;;;4807543;29;20412;-76
2023/07/20 00:19:08;;;;;;;1999.90;999.90;;;15.90;99.90;;;;;;4776542;29;20050;-75
2023/07/20 00:21:34;;;;;;;1999.90;999.90;;;15.90;99.90;;;;;;4806579;29;20095;-76
2023/07/20 00:24:00;;;;;;;1999.90;999.90;;;16.00;99.90;;;;;;4806495;29;20051;-75
2023/07/20 00:26:26;;;;;;;1999.90;999.90;;;16.00;99.90;;;;;;4806895;29;20051;-75
2023/07/20 00:28:51;;;;;;;1999.90;999.90;;;16.00;99.90;;;;;;4806256;29;20098;-76
2023/07/20 00:31:17;;;;;;;1999.90;999.90;;;16.00;99.90;;;;;;4806054;29;20046;-75
2023/07/20 00:33:43;;;;;;;1999.90;999.90;;;16.10;99.90;;;;;;4791162;29;20043;-76
2023/07/20 00:36:09;;;;;;;1999.90;999.90;;;16.10;99.90;;;;;;4805992;29;20179;-76
2023/07/20 00:38:34;;;;;;;1999.90;999.90;;;16.00;99.90;;;;;;4790945;29;20408;-75
2023/07/20 00:41:00;;;;;;;1999.90;999.90;;;16.00;99.90;;;;;;4805852;29;20046;-76
2023/07/20 00:43:26;;;;;;;1999.90;999.90;;;16.10;99.90;;;;;;4807002;29;20050;-76
2023/07/20 00:45:51;;;;;;;1999.90;999.90;;;16.00;99.90;;;;;;4806962;29;20047;-77
2023/07/20 00:48:17;;;;;;;1999.90;999.90;;;16.00;99.90;;;;;;4791309;29;20051;-76
2023/07/20 00:50:44;;;;;;;1999.90;999.90;;;16.10;99.90;;;;;;4805759;29;20051;-77
2023/07/20 00:53:10;;;;;;;1999.90;999.90;;;16.00;99.90;;;;;;4805754;29;20058;-77
2023/07/20 00:55:35;;;;;;;1999.90;999.90;;;16.00;99.90;;;;;;4805672;29;20054;-75
2023/07/20 00:58:01;;;;;;;1999.90;999.90;;;16.00;99.90;;;;;;4805591;29;20054;-75
2023/07/20 01:00:27;;;;;;;1999.90;999.90;;;16.00;99.90;;;;;;4806370;29;20090;-76
2023/07/20 01:02:53;;;;;;;1999.90;999.90;;;16.00;99.90;;;;;;4805456;29;20177;-75
2023/07/20 01:05:20;;;;;;;1999.90;999.90;;;16.00;99.90;;;;;;4805576;29;20051;-75
2023/07/20 01:08:24;;;;;;;1999.90;999.90;;;16.00;99.90;;;;;;4805356;29;20522;-75
2023/07/20 01:10:59;;;;;;;1999.90;999.90;;;16.00;99.90;;;;;;4794722;29;20063;-75
2023/07/20 01:13:26;;;;;;;1999.90;999.90;;;16.00;99.90;;;;;;4807431;29;20457;-76
2023/07/20 01:16:01;;;;;;;1999.90;999.90;;;16.00;99.90;;;;;;4805607;29;20065;-76
2023/07/20 01:18:27;;;;;;;1999.90;999.90;;;15.90;99.90;;;;;;4806290;29;20059;-75
2023/07/20 01:20:59;;;;;;;1999.90;999.90;;;15.90;99.90;;;;;;4806430;29;20463;-76
2023/07/20 01:23:49;;;;;;;1999.90;999.90;;;15.90;99.90;;;;;;4806841;29;20404;-75
2023/07/20 01:26:59;;;;;;;1999.90;999.90;;;15.90;99.90;;;;;;4805555;29;20059;-75
2023/07/20 01:29:47;;;;;;;1999.90;999.90;;;15.80;99.90;;;;;;4735787;30;20502;-75
2023/07/20 01:32:16;;;;;;;1999.90;999.90;;;15.70;99.90;;;;;;4805527;29;20058;-75
2023/07/20 01:34:44;;;;;;;1999.90;999.90;;;15.70;99.90;;;;;;4806512;29;20143;-75
2023/07/20 01:37:11;;;;;;;1999.90;999.90;;;15.70;99.90;;;;;;4806403;29;20056;-76
2023/07/20 01:39:38;;;;;;;1999.90;999.90;;;15.70;99.90;;;;;;4806393;29;20054;-75
2023/07/20 01:42:04;;;;;;;1999.90;999.90;;;15.70;99.90;;;;;;4806234;29;20508;-75
2023/07/20 01:44:30;;;;;;;1999.90;999.90;;;15.70;99.90;;;;;;4805244;29;20090;-76
2023/07/20 01:46:56;;;;;;;1999.90;999.90;;;15.60;99.90;;;;;;4820429;29;20134;-75
2023/07/20 01:49:21;;;;;;;1999.90;999.90;;;16.00;99.90;;;;;;4806274;29;20047;-75
2023/07/20 01:51:47;;;;;;;1999.90;999.90;;;15.60;99.90;;;;;;4805181;29;20126;-76
2023/07/20 01:54:13;;;;;;;1999.90;999.90;;;15.60;99.90;;;;;;4804803;29;20057;-76
2023/07/20 01:56:38;;;;;;;1999.90;999.90;;;15.60;99.90;;;;;;4806553;29;20104;-76
2023/07/20 01:59:04;;;;;;;1999.90;999.90;;;15.50;99.90;;;;;;4820903;29;20543;-76
2023/07/20 02:01:30;;;;;;;1999.90;999.90;;;15.50;99.90;;;;;;4806099;29;20069;-75
2023/07/20 02:03:55;;;;;;;1999.90;999.90;;;15.50;99.90;;;;;;4804981;29;20047;-76
2023/07/20 02:06:21;;;;;;;1999.90;999.90;;;15.50;99.90;;;;;;4790256;29;20102;-76
2023/07/20 02:08:47;;;;;;;1999.90;999.90;;;15.50;99.90;;;;;;4807089;29;20055;-76
2023/07/20 02:11:12;;;;;;;1999.90;999.90;;;15.50;99.90;;;;;;4822957;29;20461;-76
2023/07/20 02:13:38;;;;;;;1999.90;999.90;;;15.50;99.90;;;;;;4791740;29;20103;-76
2023/07/20 02:16:05;;;;;;;1999.90;999.90;;;15.40;99.90;;;;;;4791236;29;20058;-76
2023/07/20 02:18:30;;;;;;;1999.90;999.90;;;15.40;99.90;;;;;;4790189;29;20051;-75
2023/07/20 02:20:56;;;;;;;1999.90;999.90;;;15.40;99.90;;;;;;4807472;29;20192;-76
2023/07/20 02:23:22;;;;;;;1999.90;999.90;;;15.40;99.90;;;;;;4823499;29;20050;-76
2023/07/20 02:25:47;;;;;;;1999.90;999.90;;;15.30;99.90;;;;;;4810193;29;20047;-77
2023/07/20 02:28:14;;;;;;;1999.90;999.90;;;15.30;99.90;;;;;;4794247;29;20473;-76
2023/07/20 02:30:40;;;;;;;1999.90;999.90;;;15.30;99.90;;;;;;4808401;29;20064;-76
2023/07/20 02:33:06;;;;;;;1999.90;999.90;;;15.20;99.90;;;;;;4808088;29;20050;-77
2023/07/20 02:35:32;;;;;;;1999.90;999.90;;;15.20;99.90;;;;;;4809295;29;20400;-77
2023/07/20 02:37:58;;;;;;;1999.90;999.90;;;15.20;99.90;;;;;;4809004;29;20062;-77
2023/07/20 02:40:23;;;;;;;1999.90;999.90;;;15.20;99.90;;;;;;4823252;29;20062;-76
2023/07/20 02:42:49;;;;;;;1999.90;999.90;;;15.10;99.90;;;;;;4792913;29;20129;-77
2023/07/20 02:45:16;;;;;;;1999.90;999.90;;;15.10;99.90;;;;;;4808358;29;20051;-76
2023/07/20 02:47:42;;;;;;;1999.90;999.90;;;15.10;99.90;;;;;;4793135;29;20063;-76
2023/07/20 02:50:08;;;;;;;1999.90;999.90;;;15.10;99.90;;;;;;4807634;29;20046;-75
2023/07/20 02:52:34;;;;;;;1999.90;999.90;;;15.10;99.90;;;;;;4808061;29;20099;-75
2023/07/20 02:55:00;;;;;;;1999.90;999.90;;;15.00;99.90;;;;;;4822952;29;20054;-76
2023/07/20 02:57:27;;;;;;;1999.90;999.90;;;15.00;99.90;;;;;;4809398;29;20047;-76
2023/07/20 02:59:52;;;;;;;1999.90;999.90;;;15.00;99.90;;;;;;4807584;29;20063;-76
2023/07/20 03:02:18;;;;;;;1999.90;999.90;;;14.90;99.90;;;;;;4808705;29;20108;-76
2023/07/20 03:04:44;;;;;;;1999.90;999.90;;;14.90;99.90;;;;;;4808768;29;20055;-76
2023/07/20 03:07:10;;;;;;;1999.90;999.90;;;14.90;99.90;;;;;;4792840;29;20090;-76
2023/07/20 03:09:35;;;;;;;1999.90;999.90;;;14.80;99.90;;;;;;4807660;29;20065;-76
2023/07/20 03:12:01;;;;;;;1999.90;999.90;;;14.80;99.90;;;;;;4822937;29;20050;-76
2023/07/20 03:14:27;;;;;;;1999.90;999.90;;;14.80;99.90;;;;;;4808598;29;20515;-76
2023/07/20 03:16:52;;;;;;;1999.90;999.90;;;14.80;99.90;;;;;;4822521;29;20520;-77
2023/07/20 03:19:18;;;;;;;1999.90;999.90;;;14.70;99.90;;;;;;4808514;29;20050;-77
2023/07/20 03:21:44;;;;;;;1999.90;999.90;;;14.70;99.90;;;;;;4808635;29;20162;-77
2023/07/20 03:24:09;;;;;;;1999.90;999.90;;;14.70;99.90;;;;;;4808527;29;20058;-76
2023/07/20 03:26:36;;;;;;;1999.90;999.90;;;14.70;99.90;;;;;;4822704;29;20051;-75
2023/07/20 03:29:02;;;;;;;1999.90;999.90;;;14.70;99.90;;;;;;4808279;29;20055;-76
2023/07/20 03:31:28;;;;;;;1999.90;999.90;;;14.70;99.90;;;;;;4807727;29;20533;-76
2023/07/20 03:33:53;;;;;;;1999.90;999.90;;;14.70;99.90;;;;;;4808253;29;20098;-76
2023/07/20 03:36:19;;;;;;;1999.90;999.90;;;14.60;99.90;;;;;;4807092;29;20138;-76
2023/07/20 03:38:45;;;;;;;1999.90;999.90;;;14.60;99.90;;;;;;4806975;29;20416;-75
2023/07/20 03:41:11;;;;;;;1999.90;999.90;;;14.60;99.90;;;;;;4807107;29;20050;-76
2023/07/20 03:43:37;;;;;;;1999.90;999.90;;;14.50;99.90;;;;;;4807131;29;20086;-75
2023/07/20 03:46:06;;;;;;;1999.90;999.90;;;14.50;99.90;;;;;;4808885;29;20152;-76
2023/07/20 03:48:33;;;;;;;1999.90;999.90;;;14.50;99.90;;;;;;4806778;29;20059;-76
2023/07/20 03:51:00;;;;;;;1999.90;999.90;;;14.50;99.90;;;;;;4791896;29;20107;-75
2023/07/20 03:53:26;;;;;;;1999.90;999.90;;;14.50;99.90;;;;;;4807273;29;20066;-75
2023/07/20 03:55:52;;;;;;;1999.90;999.90;;;14.40;99.90;;;;;;4807912;29;20133;-75
2023/07/20 03:58:19;;;;;;;1999.90;999.90;;;14.40;99.90;;;;;;4808392;29;20059;-75
2023/07/20 04:00:50;;;;;;;1999.90;999.90;;;14.40;99.90;;;;;;4808427;29;20058;-76
2023/07/20 04:03:16;;;;;;;1999.90;999.90;;;14.30;99.90;;;;;;4809430;29;20062;-76
2023/07/20 04:05:43;;;;;;;1999.90;999.90;;;14.30;99.90;;;;;;4791785;29;20143;-76
2023/07/20 04:08:10;;;;;;;1999.90;999.90;;;14.20;99.90;;;;;;4807946;29;20125;-76
2023/07/20 04:10:36;;;;;;;1999.90;999.90;;;14.20;99.90;;;;;;4806798;29;20488;-76
2023/07/20 04:13:01;;;;;;;1999.90;999.90;;;14.20;99.90;;;;;;4792061;29;20070;-76
2023/07/20 04:15:27;;;;;;;1999.90;999.90;;;14.20;99.90;;;;;;4806699;29;20430;-76
2023/07/20 04:17:53;;;;;;;1999.90;999.90;;;14.20;99.90;;;;;;4791634;29;20055;-76
2023/07/20 04:20:19;;;;;;;1999.90;999.90;;;14.20;99.90;;;;;;4791595;29;20059;-75
2023/07/20 04:22:45;;;;;;;1999.90;999.90;;;14.20;99.90;;;;;;4806216;29;20057;-75
2023/07/20 04:25:10;;;;;;;1999.90;999.90;;;14.20;99.90;;;;;;4808010;29;20058;-76
2023/07/20 04:27:36;;;;;;;1999.90;999.90;;;14.20;99.90;;;;;;4807182;29;20050;-75
2023/07/20 04:30:03;;;;;;;1999.90;999.90;;;14.20;99.90;;;;;;4807548;29;20133;-75
2023/07/20 04:32:30;;;;;;;1999.90;999.90;;;14.20;99.90;;;;;;4806293;29;20066;-75
2023/07/20 04:34:56;;;;;;;1999.90;999.90;;;14.20;99.90;;;;;;4807256;29;20053;-76
2023/07/20 04:37:21;;;;;;;1999.90;999.90;;;14.20;99.90;;;;;;4806100;29;20054;-75
2023/07/20 04:39:47;;;;;;;1999.90;999.90;;;14.20;99.90;;;;;;4805973;29;20086;-77
2023/07/20 04:42:13;;;;;;;1999.90;999.90;;;14.20;99.90;;;;;;4807328;29;20043;-76
2023/07/20 04:44:39;;;;;;;1999.90;999.90;;;14.20;99.90;;;;;;4790984;29;20388;-76
2023/07/20 04:47:05;;;;;;;1999.90;999.90;;;14.30;99.90;;;;;;4776186;29;20097;-75
2023/07/20 04:49:30;;;;;;;1999.90;999.90;;;14.30;99.90;;;;;;4805854;29;20054;-76
2023/07/20 04:51:56;;;;;;;1999.90;999.90;;;14.30;99.90;;;;;;4805799;29;20459;-76
2023/07/20 04:54:22;;;;;;;1999.90;999.90;;;14.30;99.90;;;;;;4805819;29;20137;-76
2023/07/20 04:56:48;;;;;;;1999.90;999.90;;;14.40;99.90;;;;;;4806930;29;20051;-75
2023/07/20 04:59:13;;;;;;;1999.90;999.90;;;14.50;99.90;;;;;;4805486;29;20075;-76
2023/07/20 05:01:40;;;;;;;1999.90;999.90;;;14.50;99.90;;;;;;4806745;29;20154;-76
2023/07/20 05:04:05;;;;;;;1999.90;999.90;;;14.50;99.90;;;;;;4791186;29;20063;-76
2023/07/20 05:06:31;;;;;;;1999.90;999.90;;;14.50;99.90;;;;;;4806093;29;20057;-76
2023/07/20 05:08:57;;;;;;;1999.90;999.90;;;14.50;99.90;;;;;;4791603;29;20116;-76
2023/07/20 05:11:23;;;;;;;1999.90;999.90;;;14.50;99.90;;;;;;4807603;29;20095;-77
2023/07/20 05:13:49;;;;;;;1999.90;999.90;;;14.40;99.90;;;;;;4821247;29;20137;-76
2023/07/20 05:16:14;;;;;;;1999.90;999.90;;;14.40;99.90;;;;;;4806025;29;20130;-75
2023/07/20 05:18:40;;;;;;;1999.90;999.90;;;14.40;99.90;;;;;;4820823;29;20134;-76
2023/07/20 05:21:06;;;;;;;1999.90;999.90;;;14.50;99.90;;;;;;4805391;29;20051;-75
2023/07/20 05:23:32;;;;;;;1999.90;999.90;;;14.50;99.90;;;;;;4806852;29;20051;-77
2023/07/20 05:25:59;;;;;;;1999.90;999.90;;;14.60;99.90;;;;;;4821083;29;20503;-76
2023/07/20 05:28:26;;;;;;;1999.90;999.90;;;14.60;99.90;;;;;;4805561;29;20069;-76
2023/07/20 05:30:52;;;;;;;1999.90;999.90;;;14.60;99.90;;;;;;4805624;29;20512;-77
2023/07/20 05:33:19;;;;;;;1999.90;999.90;;;14.70;99.90;;;;;;4805561;29;20059;-78
2023/07/20 05:35:44;;;;;;;1999.90;999.90;;;14.70;99.90;;;;;;4805878;29;20054;-76
2023/07/20 05:38:10;;;;;;;1999.90;999.90;;;14.80;99.90;;;;;;4790636;29;20055;-76
2023/07/20 05:40:38;;;;;;;1999.90;999.90;;;14.80;99.90;;;;;;4806180;29;20058;-77
2023/07/20 05:43:04;;;;;;;1999.90;999.90;;;14.90;99.90;;;;;;4807096;29;20442;-76
2023/07/20 05:45:29;;;;;;;1999.90;999.90;;;14.90;99.90;;;;;;4806332;29;20057;-77
2023/07/20 05:47:55;;;;;;;1999.90;999.90;;;14.90;99.90;;;;;;4805730;29;20133;-76
2023/07/20 05:50:21;;;;;;;1999.90;999.90;;;15.00;99.90;;;;;;4820865;29;20388;-76
2023/07/20 05:52:47;;;;;;;1999.90;999.90;;;15.00;99.90;;;;;;4820443;29;20089;-77
2023/07/20 05:55:13;;;;;;;1999.90;999.90;;;15.10;99.90;;;;;;4821031;29;20091;-76
2023/07/20 05:57:43;;;;;;;1999.90;999.90;;;15.00;99.90;;;;;;4809228;29;20077;-75
2023/07/20 06:00:09;;;;;;;1999.90;999.90;;;15.10;99.90;;;;;;4808814;29;20137;-77
2023/07/20 06:02:35;;;;;;;1999.90;999.90;;;15.10;99.90;;;;;;4808652;29;20051;-77
2023/07/20 06:05:01;;;;;;;1999.90;999.90;;;15.10;99.90;;;;;;4809756;29;20058;-76
2023/07/20 06:07:27;;;;;;;1999.90;999.90;;;15.10;99.90;;;;;;4794028;29;20106;-77
2023/07/20 06:09:53;;;;;;;1999.90;999.90;;;15.20;99.90;;;;;;4808592;29;20047;-77
2023/07/20 06:12:19;;;;;;;1999.90;999.90;;;15.20;99.90;;;;;;4808781;29;20444;-77
2023/07/20 06:14:44;;;;;;;1999.90;999.90;;;15.30;99.90;;;;;;4809035;29;20170;-77
2023/07/20 06:17:10;;;;;;;1999.90;999.90;;;15.30;99.90;;;;;;4824103;29;20051;-77
2023/07/20 06:19:36;;;;;;;1999.90;999.90;;;15.30;99.90;;;;;;4810153;29;20050;-76
2023/07/20 06:22:02;;;;;;;1999.90;999.90;;;15.40;99.90;;;;;;4778549;29;20047;-76
2023/07/20 06:24:28;;;;;;;1999.90;999.90;;;15.40;99.90;;;;;;4808303;29;20130;-77
2023/07/20 06:26:53;;;;;;;1999.90;999.90;;;15.50;99.90;;;;;;4794256;29;20051;-77
2023/07/20 06:29:19;;;;;;;1999.90;999.90;;;15.50;99.90;;;;;;4823749;29;20051;-76
2023/07/20 06:31:45;;;;;;;1999.90;999.90;;;15.60;99.90;;;;;;4793816;29;20141;-75
2023/07/20 06:34:10;;;;;;;1999.90;999.90;;;15.60;99.90;;;;;;4809386;29;20061;-77
2023/07/20 06:36:36;;;;;;;1999.90;999.90;;;15.60;99.90;;;;;;4810091;29;20125;-76
2023/07/20 06:39:02;;;;;;;1999.90;999.90;;;15.70;99.90;;;;;;4797688;29;20050;-76
2023/07/20 06:41:28;;;;;;;1999.90;999.90;;;15.70;99.90;;;;;;4828961;29;20050;-76
2023/07/20 06:43:57;;;;;;;1999.90;999.90;;;15.70;99.90;;;;;;4812745;29;20066;-75
2023/07/20 06:46:26;;;;;;;1999.90;999.90;;;15.80;99.90;;;;;;4808286;29;20051;-75
2023/07/20 06:48:52;;;;;;;1999.90;999.90;;;15.80;99.90;;;;;;4809073;29;20143;-75
2023/07/20 06:51:18;;;;;;;1999.90;999.90;;;15.90;99.90;;;;;;4808093;29;20096;-76
2023/07/20 06:53:44;;;;;;;1999.90;999.90;;;15.90;99.90;;;;;;4808334;29;20086;-76
2023/07/20 06:56:11;;;;;;;1999.90;999.90;;;16.00;99.90;;;;;;4822794;29;20051;-77
2023/07/20 06:58:36;;;;;;;1999.90;999.90;;;16.00;99.90;;;;;;4807822;29;20054;-76
2023/07/20 07:01:08;;;;;;;1999.90;999.90;;;16.10;99.90;;;;;;4808172;29;20162;-76
2023/07/20 07:03:33;;;;;;;1999.90;999.90;;;16.20;99.90;;;;;;4808913;29;20069;-75
2023/07/20 07:06:00;;;;;;;1999.90;999.90;;;16.20;99.90;;;;;;4809132;29;20050;-75
2023/07/20 07:08:26;;;;;;;1999.90;999.90;;;16.20;99.90;;;;;;4792972;29;20107;-75
2023/07/20 07:10:52;;;;;;;1999.90;999.90;;;16.20;99.90;;;;;;4808702;29;20055;-76
2023/07/20 07:13:18;;;;;;;1999.90;999.90;;;16.30;99.90;;;;;;4808541;29;20055;-75
2023/07/20 07:15:45;;;;;;;1999.90;999.90;;;16.40;99.90;;;;;;4792640;29;20080;-75
2023/07/20 07:18:11;;;;;;;1999.90;999.90;;;16.40;99.90;;;;;;4778066;29;20065;-75
2023/07/20 07:20:36;;;;;;;1999.90;999.90;;;16.50;99.90;;;;;;4807690;29;20130;-75
2023/07/20 07:23:02;;;;;;;1999.90;999.90;;;16.50;99.90;;;;;;4807382;29;20047;-75
2023/07/20 07:25:28;;;;;;;1999.90;999.90;;;16.60;99.90;;;;;;4808407;29;20133;-74
2023/07/20 07:27:55;;;;;;;1999.90;999.90;;;16.60;99.90;;;;;;4808630;29;20074;-75
2023/07/20 07:30:21;;;;;;;1999.90;999.90;;;16.70;99.90;;;;;;4807602;29;20481;-75
2023/07/20 07:32:47;;;;;;;1999.90;999.90;;;16.70;99.90;;;;;;4807305;29;20068;-74
2023/07/20 07:35:12;;;;;;;1999.90;999.90;;;16.80;99.90;;;;;;4792528;29;20047;-74
2023/07/20 07:37:38;;;;;;;1999.90;999.90;;;16.80;99.90;;;;;;4808834;29;20086;-73
2023/07/20 07:40:06;;;;;;;1999.90;999.90;;;16.90;99.90;;;;;;4808266;29;20496;-73
2023/07/20 07:42:32;;;;;;;1999.90;999.90;;;16.90;99.90;;;;;;4807050;29;20103;-74
2023/07/20 07:44:57;;;;;;;1999.90;999.90;;;16.90;99.90;;;;;;4808286;29;20043;-74
2023/07/20 07:47:23;;;;;;;1999.90;999.90;;;16.80;99.90;;;;;;4808318;29;20058;-73
2023/07/20 07:49:49;;;;;;;1999.90;999.90;;;16.80;99.90;;;;;;4822243;29;20054;-73
2023/07/20 07:52:15;;;;;;;1999.90;999.90;;;16.80;99.90;;;;;;4807189;29;20054;-73
2023/07/20 07:54:41;;;;;;;1999.90;999.90;;;16.80;99.90;;;;;;4807929;29;20054;-73
2023/07/20 07:57:07;;;;;;;1999.90;999.90;;;16.90;99.90;;;;;;4807093;29;20050;-75
2023/07/20 07:59:36;;;;;;;1999.90;999.90;;;16.90;99.90;;;;;;4808119;29;20070;-74
2023/07/20 08:02:04;;;;;;;1999.90;999.90;;;16.90;99.90;;;;;;4807882;29;20057;-74
2023/07/20 08:04:30;;;;;;;1999.90;999.90;;;16.90;99.90;;;;;;4806817;29;20057;-75
2023/07/20 08:06:56;;;;;;;1999.90;999.90;;;16.90;99.90;;;;;;4807076;29;20054;-76
2023/07/20 08:09:21;;;;;;;1999.90;999.90;;;16.90;99.90;;;;;;4807868;29;20068;-75
2023/07/20 08:11:48;;;;;;;1999.90;999.90;;;16.80;99.90;;;;;;4821884;29;20370;-76
2023/07/20 08:14:14;;;;;;;1999.90;999.90;;;16.80;99.90;;;;;;4806893;29;20137;-75
2023/07/20 08:16:39;;;;;;;1999.90;999.90;;;16.80;99.90;;;;;;4807610;29;20125;-75
2023/07/20 08:19:05;;;;;;;1999.90;999.90;;;16.80;99.90;;;;;;4805771;29;20087;-75
2023/07/20 08:21:31;;;;;;;1999.90;999.90;;;16.90;99.90;;;;;;4807054;29;20459;-76
2023/07/20 08:23:56;;;;;;;1999.90;999.90;;;16.90;99.90;;;;;;4821446;29;20385;-75
2023/07/20 08:26:24;;;;;;;1999.90;999.90;;;17.00;99.90;;;;;;4791459;29;20055;-75
2023/07/20 08:28:49;;;;;;;1999.90;999.90;;;17.00;99.90;;;;;;4791460;29;20066;-75
2023/07/20 08:31:15;;;;;;;1999.90;999.90;;;17.10;99.90;;;;;;4821993;29;20104;-74
2023/07/20 08:33:41;;;;;;;1999.90;999.90;;;17.20;99.90;;;;;;4807189;29;20050;-75
2023/07/20 08:36:07;;;;;;;1999.90;999.90;;;17.20;99.90;;;;;;4806072;29;20093;-75
2023/07/20 08:38:33;;;;;;;1999.90;999.90;;;17.30;99.90;;;;;;4807167;29;20059;-75
2023/07/20 08:40:59;;;;;;;1999.90;999.90;;;17.30;99.90;;;;;;4806289;29;20070;-75
2023/07/20 08:43:26;;;;;;;1999.90;999.90;;;17.40;99.90;;;;;;4806312;29;20058;-75
2023/07/20 08:45:56;;;;;;;1999.90;999.90;;;17.50;99.90;;;;;;4806886;29;20086;-74
2023/07/20 08:48:22;;;;;;;1999.90;999.90;;;17.60;99.90;;;;;;4806144;29;20050;-75
2023/07/20 08:50:51;;;;;;;1999.90;999.90;;;17.60;99.90;;;;;;4791322;29;20077;-75
2023/07/20 08:53:17;;;;;;;1999.90;999.90;;;17.70;99.90;;;;;;4806416;29;20047;-75
2023/07/20 08:55:47;;;;;;;1999.90;999.90;;;17.70;99.90;;;;;;4806748;29;20139;-75
2023/07/20 08:58:14;;;;;;;1999.90;999.90;;;17.60;99.90;;;;;;4807882;29;20050;-74
2023/07/20 09:00:41;;;;;;;1999.90;999.90;;;17.60;99.90;;;;;;4805896;29;20126;-75
2023/07/20 09:03:08;;;;;;;1999.90;999.90;;;17.60;99.90;;;;;;4805467;29;20130;-75
2023/07/20 09:05:35;;;;;;;1999.90;999.90;;;17.50;99.90;;;;;;4805977;29;20123;-75
2023/07/20 09:08:02;;;;;;;1999.90;999.90;;;17.60;99.90;;;;;;4807425;29;20471;-74
2023/07/20 09:10:28;;;;;;;1999.90;999.90;;;17.70;99.90;;;;;;4806694;29;20138;-74
2023/07/20 09:12:55;;;;;;;1999.90;999.90;;;17.70;99.90;;;;;;4805689;29;20471;-74
2023/07/20 09:15:21;;;;;;;1999.90;999.90;;;17.70;99.90;;;;;;4805842;29;20055;-75
2023/07/20 09:17:53;;;;;;;1999.90;999.90;;;17.70;99.90;;;;;;4806818;29;20130;-74
2023/07/20 09:20:20;;;;;;;1999.90;999.90;;;17.70;99.90;;;;;;4807664;29;20446;-74
2023/07/20 09:22:46;;;;;;;1999.90;999.90;;;17.70;99.90;;;;;;4805576;29;20100;-73
2023/07/20 09:25:20;;;;;;;1999.90;999.90;;;17.80;99.90;;;;;;4806919;29;20540;-73
2023/07/20 09:27:47;;;;;;;1999.90;999.90;;;17.90;99.90;;;;;;4806475;29;20126;-73
2023/07/20 09:30:15;;;;;;;1999.90;999.90;;;18.00;99.90;;;;;;4806862;29;20086;-73
2023/07/20 09:32:44;;;;;;;1999.90;999.90;;;18.10;99.90;;;;;;4806313;29;20496;-76
2023/07/20 09:35:14;;;;;;;1999.90;999.90;;;18.10;99.90;;;;;;4806378;29;20054;-75
2023/07/20 09:37:47;;;;;;;1999.90;999.90;;;18.20;99.90;;;;;;4806199;29;20469;-72
2023/07/20 09:40:17;;;;;;;1999.90;999.90;;;18.20;99.90;;;;;;4805919;29;20050;-75
2023/07/20 09:42:43;;;;;;;1999.90;999.90;;;18.20;99.90;;;;;;4807268;29;20051;-74
2023/07/20 09:45:09;;;;;;;1999.90;999.90;;;18.20;99.90;;;;;;4820545;29;20059;-75
2023/07/20 09:47:38;;;;;;;1999.90;999.90;;;18.20;99.90;;;;;;4806423;29;20047;-75
2023/07/20 09:50:04;;;;;;;1999.90;999.90;;;18.30;99.90;;;;;;4804999;29;20093;-75
2023/07/20 09:52:31;;;;;;;1999.90;999.90;;;18.40;99.90;;;;;;4790197;29;20449;-75
2023/07/20 09:54:58;;;;;;;1999.90;999.90;;;18.40;99.90;;;;;;4806036;29;20381;-75
2023/07/20 09:57:26;;;;;;;1999.90;999.90;;;18.50;99.90;;;;;;4790403;29;20066;-73
2023/07/20 09:59:51;;;;;;;1999.90;999.90;;;18.50;99.90;;;;;;4804910;29;20067;-75
2023/07/20 10:02:24;;;;;;;1999.90;999.90;;;18.60;99.90;;;;;;4807019;29;20057;-75
2023/07/20 10:04:53;;;;;;;1999.90;999.90;;;18.60;99.90;;;;;;4806033;29;20058;-75
2023/07/20 10:07:22;;;;;;;1999.90;999.90;;;18.50;99.90;;;;;;4805296;29;20051;-75
2023/07/20 10:09:51;;;;;;;1999.90;999.90;;;18.50;99.90;;;;;;4805205;29;20138;-75
2023/07/20 10:12:19;;;;;;;1999.90;999.90;;;18.50;99.90;;;;;;4790331;29;20090;-75
2023/07/20 10:15:10;;;;;;;1999.90;999.90;;;18.50;99.90;;;;;;4805022;29;20047;-75
2023/07/20 10:17:49;;;;;;;1999.90;999.90;;;18.60;99.90;;;;;;4806189;29;20046;-74
2023/07/20 10:20:19;;;;;;;1999.90;999.90;;;18.60;99.90;;;;;;4805471;29;20058;-75
2023/07/20 10:22:48;;;;;;;1999.90;999.90;;;18.70;99.90;;;;;;4806097;29;20401;-76
2023/07/20 10:25:14;;;;;;;1999.90;999.90;;;18.70;99.90;;;;;;4805406;29;20345;-76
2023/07/20 10:27:40;;;;;;;1999.90;999.90;;;18.80;99.90;;;;;;4805210;29;20534;-75
2023/07/20 10:30:07;;;;;;;1999.90;999.90;;;18.80;99.90;;;;;;4806353;29;20082;-74
2023/07/20 10:32:33;;;;;;;1999.90;999.90;;;19.00;99.90;;;;;;4805405;29;20141;-75
2023/07/20 10:34:59;;;;;;;1999.90;999.90;;;19.00;99.90;;;;;;4806779;29;20055;-76
2023/07/20 10:38:01;;;;;;;1999.90;999.90;;;19.10;99.90;;;;;;4790784;29;20538;-75
2023/07/20 10:40:28;;;;;;;1999.90;999.90;;;19.10;99.90;;;;;;4782444;29;20055;-76
2023/07/20 10:43:08;;;;;;;1999.90;999.90;;;19.00;99.90;;;;;;4807694;29;20403;-74
2023/07/20 10:45:49;;;;;;;1999.90;999.90;;;19.10;99.90;;;;;;4809224;29;20061;-74
2023/07/20 10:48:19;;;;;;;1999.90;999.90;;;19.20;99.90;;;;;;4808068;29;20051;-74
2023/07/20 10:51:06;;;;;;;1999.90;999.90;;;19.20;99.90;;;;;;4824238;29;20055;-74
2023/07/20 10:53:31;;;;;;;1999.90;999.90;;;19.30;99.90;;;;;;4808422;29;20054;-74
2023/07/20 10:56:30;;;;;;;1999.90;999.90;;;19.30;99.90;;;;;;4822988;29;20051;-74
2023/07/20 10:59:00;;;;;;;1999.90;999.90;;;19.30;99.90;;;;;;4798131;29;20066;-74
2023/07/20 11:01:31;;;;;;;1999.90;999.90;;;19.40;99.90;;;;;;4793122;29;20377;-74
2023/07/20 11:04:00;;;;;;;1999.90;999.90;;;19.40;99.90;;;;;;4808260;29;20055;-73
2023/07/20 11:06:25;;;;;;;1999.90;999.90;;;19.40;99.90;;;;;;4793719;29;20059;-73
2023/07/20 11:09:10;;;;;;;1999.90;999.90;;;19.30;99.90;;;;;;4823178;29;20077;-75
2023/07/20 11:11:38;;;;;;;1999.90;999.90;;;19.20;99.90;;;;;;4808696;29;20051;-74
2023/07/20 11:14:07;;;;;;;1999.90;999.90;;;19.20;99.90;;;;;;4808018;29;20102;-71
2023/07/20 11:16:41;;;;;;;1999.90;999.90;;;19.30;99.90;;;;;;4823191;29;20456;-73
2023/07/20 11:19:17;;;;;;;1999.90;999.90;;;19.40;99.90;;;;;;4808291;29;20050;-74
2023/07/20 11:21:45;;;;;;;1999.90;999.90;;;19.50;99.90;;;;;;4822824;29;20488;-72
2023/07/20 11:24:13;;;;;;;1999.90;999.90;;;19.60;99.90;;;;;;4808545;29;20050;-74
2023/07/20 11:26:49;;;;;;;1999.90;999.90;;;19.50;99.90;;;;;;4807434;29;20043;-72
2023/07/20 11:29:27;;;;;;;1999.90;999.90;;;19.50;99.90;;;;;;4793177;29;20051;-73
2023/07/20 11:31:53;;;;;;;1999.90;999.90;;;19.40;99.90;;;;;;4792903;29;20066;-73
2023/07/20 11:34:21;;;;;;;1999.90;999.90;;;19.30;99.90;;;;;;4809079;29;20063;-73
2023/07/20 11:36:51;;;;;;;1999.90;999.90;;;19.30;99.90;;;;;;4807653;29;20051;-72
2023/07/20 11:39:19;;;;;;;1999.90;999.90;;;19.30;99.90;;;;;;4822332;29;20137;-73
2023/07/20 11:41:56;;;;;;;1999.90;999.90;;;19.30;99.90;;;;;;4806734;29;20496;-73
2023/07/20 11:44:27;;;;;;;1999.90;999.90;;;19.30;99.90;;;;;;4808801;29;20047;-72
2023/07/20 11:47:08;;;;;;;1999.90;999.90;;;19.20;99.90;;;;;;4807625;29;20096;-73
2023/07/20 11:49:38;;;;;;;1999.90;999.90;;;19.30;99.90;;;;;;4806991;29;20472;-72
2023/07/20 11:52:06;;;;;;;1999.90;999.90;;;19.40;99.90;;;;;;4807219;29;20472;-73
2023/07/20 11:54:33;;;;;;;1999.90;999.90;;;19.40;99.90;;;;;;4808102;29;20054;-73
2023/07/20 11:57:01;;;;;;;1999.90;999.90;;;19.50;99.90;;;;;;4807359;29;20077;-72
2023/07/20 11:59:27;;;;;;;1999.90;999.90;;;19.60;99.90;;;;;;4808276;29;20096;-74
2023/07/20 12:01:53;;;;;;;1999.90;999.90;;;19.70;99.90;;;;;;4792132;29;20051;-72